LICZ

Details ICAO LICZ (NSY)
Name SIGONELLA
Region Italy
Timezone Europe/Rome (UTC+2.0)
Plans Departing 86
Arriving 92
Stats Elevation 79 ft / 24 m (AMSL)
Location 37.402600° 14.922500°
Runways 2
Magnetic Variation 3.327° E
Sunrise 2019-05-19 03:50:02 UTC / 2019-05-19 05:50:02 Local
Sunset 2019-05-19 18:06:20 UTC / 2019-05-19 20:06:20 Local
Advertisement - Login to hide

Runways

ID Width Length Bearing (true/mag) Surface Threshold Overrun Markings Lighting
10L 98 ft / 30 m 7,997 ft / 2,437 m 98.38° / 95.06° ASPHALT 146 ft / 45 m 0 ft / 0 m APP EDGE THRESHOLD REIL-OMNI
10R 148 ft / 45 m 8,060 ft / 2,457 m 98.27° / 94.94° ASPHALT 343 ft / 105 m 760 ft / 232 m APP EDGE THRESHOLD MALS REIL-OMNI
28L 148 ft / 45 m 8,060 ft / 2,457 m 278.29° / 274.96° ASPHALT 349 ft / 106 m 704 ft / 215 m APP EDGE THRESHOLD CALVERT REIL-OMNI
28R 98 ft / 30 m 7,997 ft / 2,437 m 278.40° / 275.07° ASPHALT 139 ft / 42 m 0 ft / 0 m APP EDGE THRESHOLD CALVERT REIL-OMNI

Map

Weather


0- 5 10 15 20 25 30 35+ Temperature / °C

Clouds and Precipitation
Forecast for 2019-05-19 06:00 UTC. Updated 3 hours ago

Ground ~20,000 ft ~40,000 ft Winds

METAR

LICZ 190655Z 26006KT 7000 NSC 18/17 Q1006

TAF

Not found

Frequencies

Tower 122.10 MHz
Tower 118.05 MHz
Ground 121.95 MHz
Approach 119.25 MHz CATANIA APP
Approach 120.80 MHz CATANIA DIRECTOR
Warning: Do not use this data for real-world aviation or navigation. No guarantee of current accuracy is given.